LLM701 USDD-UNBG
Flight info
| Callsign | LLM701 |
|---|---|
| Flight time | 2h 26m |
| Altitude | 37000 |
| Route | ABIMA1N ABIMA G719 GIMIR W255 LUNEP G715 URAMI W143 SOREB R484 LADOV G832 KD B228 KUDEB KUDEB1F |
| Aircraft | A320/M-SDE3FGHIRWY/LB1 |
Departure
| Time | 2026-05-06 16:36 |
|---|---|
| Airport | Salekhard Airport (USDD) |
Arrival
| Time | 2026-05-06 19:03 |
|---|---|
| Airport | Gorno-Altaysk Airport (UNBG) |
| Time | Latitude | Longitude | Altitude | Speed | Heading |
|---|---|---|---|---|---|
| 2026-05-06 16:02 | 66.59003 | 66.59212 | 212 ft | 0 kts | 229° |
| 2026-05-06 16:10 | 66.59003 | 66.59211 | 212 ft | 0 kts | 229° |
| 2026-05-06 16:30 | 66.59002 | 66.59208 | 211 ft | 1 kts | 229° |
| 2026-05-06 16:30 | 66.58993 | 66.59181 | 217 ft | 5 kts | 229° |
| 2026-05-06 16:30 | 66.58932 | 66.59216 | 214 ft | 12 kts | 140° |
| 2026-05-06 16:30 | 66.58886 | 66.59370 | 214 ft | 12 kts | 91° |
| 2026-05-06 16:31 | 66.58901 | 66.59449 | 216 ft | 4 kts | 58° |
| 2026-05-06 16:31 | 66.58919 | 66.59546 | 210 ft | 8 kts | 81° |
| 2026-05-06 16:31 | 66.58877 | 66.59639 | 213 ft | 10 kts | 153° |
| 2026-05-06 16:31 | 66.58871 | 66.59645 | 211 ft | 10 kts | 153° |
| 2026-05-06 16:32 | 66.58820 | 66.59716 | 213 ft | 11 kts | 151° |
| 2026-05-06 16:32 | 66.58802 | 66.59867 | 218 ft | 12 kts | 62° |
| 2026-05-06 16:32 | 66.58816 | 66.59930 | 215 ft | 13 kts | 61° |
| 2026-05-06 16:32 | 66.58864 | 66.60156 | 211 ft | 17 kts | 60° |
| 2026-05-06 16:33 | 66.58930 | 66.60471 | 207 ft | 23 kts | 60° |
| 2026-05-06 16:33 | 66.59018 | 66.60860 | 210 ft | 27 kts | 60° |
| 2026-05-06 16:33 | 66.59113 | 66.61310 | 202 ft | 31 kts | 61° |
| 2026-05-06 16:34 | 66.59312 | 66.62233 | 200 ft | 30 kts | 62° |
| 2026-05-06 16:34 | 66.59408 | 66.62676 | 191 ft | 30 kts | 61° |
| 2026-05-06 16:34 | 66.59504 | 66.63121 | 184 ft | 24 kts | 62° |
| 2026-05-06 16:34 | 66.59573 | 66.63442 | 183 ft | 18 kts | 61° |
| 2026-05-06 16:35 | 66.59650 | 66.63643 | 180 ft | 14 kts | 29° |
| 2026-05-06 16:35 | 66.59640 | 66.63739 | 179 ft | 5 kts | 204° |
| 2026-05-06 16:35 | 66.59612 | 66.63622 | 180 ft | 12 kts | 242° |
| 2026-05-06 16:35 | 66.59538 | 66.63272 | 183 ft | 64 kts | 241° |
| 2026-05-06 16:36 | 66.59192 | 66.61669 | 203 ft | 141 kts | 242° |
| 2026-05-06 16:36 | 66.58656 | 66.59170 | 597 ft | 170 kts | 244° |
| 2026-05-06 16:36 | 66.58099 | 66.56535 | 1672 ft | 171 kts | 245° |
| 2026-05-06 16:36 | 66.57515 | 66.53858 | 2421 ft | 183 kts | 244° |
| 2026-05-06 16:37 | 66.56851 | 66.50834 | 2667 ft | 212 kts | 244° |
| 2026-05-06 16:37 | 66.55970 | 66.47606 | 3228 ft | 236 kts | 225° |
| 2026-05-06 16:37 | 66.54480 | 66.45767 | 4141 ft | 254 kts | 198° |
| 2026-05-06 16:37 | 66.52662 | 66.45993 | 5082 ft | 274 kts | 171° |
| 2026-05-06 16:38 | 66.50951 | 66.48366 | 6038 ft | 293 kts | 143° |
| 2026-05-06 16:38 | 66.49827 | 66.52766 | 6932 ft | 310 kts | 114° |
| 2026-05-06 16:38 | 66.49185 | 66.57959 | 7832 ft | 314 kts | 110° |
| 2026-05-06 16:38 | 66.48596 | 66.63244 | 8712 ft | 317 kts | 110° |
| 2026-05-06 16:39 | 66.48013 | 66.68614 | 9444 ft | 322 kts | 110° |
| 2026-05-06 16:39 | 66.47412 | 66.74105 | 9900 ft | 337 kts | 109° |
| 2026-05-06 16:39 | 66.46766 | 66.79868 | 10108 ft | 360 kts | 110° |
| 2026-05-06 16:39 | 66.46056 | 66.86069 | 10296 ft | 382 kts | 110° |
| 2026-05-06 16:40 | 66.45307 | 66.92541 | 10798 ft | 392 kts | 110° |
| 2026-05-06 16:40 | 66.44541 | 66.99148 | 11397 ft | 398 kts | 110° |
| 2026-05-06 16:40 | 66.43764 | 67.05846 | 12008 ft | 405 kts | 110° |
| 2026-05-06 16:40 | 66.42968 | 67.12644 | 12618 ft | 411 kts | 111° |
| 2026-05-06 16:41 | 66.42153 | 67.19550 | 13214 ft | 418 kts | 111° |
| 2026-05-06 16:41 | 66.41324 | 67.26546 | 13787 ft | 423 kts | 111° |
| 2026-05-06 16:41 | 66.40496 | 67.33524 | 14375 ft | 426 kts | 111° |
| 2026-05-06 16:41 | 66.39645 | 67.40638 | 14967 ft | 429 kts | 111° |
| 2026-05-06 16:42 | 66.38783 | 67.47785 | 15559 ft | 432 kts | 111° |
| 2026-05-06 16:42 | 66.37911 | 67.54992 | 16167 ft | 435 kts | 112° |
| 2026-05-06 16:42 | 66.36812 | 67.61987 | 16786 ft | 432 kts | 123° |
| 2026-05-06 16:42 | 66.35387 | 67.68555 | 17406 ft | 433 kts | 126° |
| 2026-05-06 16:43 | 66.33923 | 67.75139 | 18002 ft | 436 kts | 126° |
| 2026-05-06 16:43 | 66.32441 | 67.81747 | 18556 ft | 439 kts | 126° |
| 2026-05-06 16:43 | 66.30944 | 67.88409 | 19113 ft | 443 kts | 126° |
| 2026-05-06 16:43 | 66.29434 | 67.95118 | 19639 ft | 446 kts | 125° |
| 2026-05-06 16:44 | 66.27932 | 68.01784 | 20184 ft | 450 kts | 125° |
| 2026-05-06 16:44 | 66.26402 | 68.08587 | 20712 ft | 453 kts | 125° |
| 2026-05-06 16:44 | 66.24859 | 68.15433 | 21204 ft | 456 kts | 125° |
| 2026-05-06 16:44 | 66.23303 | 68.22317 | 21696 ft | 459 kts | 125° |
| 2026-05-06 16:45 | 66.21732 | 68.29233 | 22177 ft | 462 kts | 126° |
| 2026-05-06 16:45 | 66.20145 | 68.36180 | 22646 ft | 465 kts | 126° |
| 2026-05-06 16:45 | 66.18544 | 68.43165 | 23114 ft | 468 kts | 126° |
| 2026-05-06 16:45 | 66.16931 | 68.50186 | 23477 ft | 471 kts | 126° |
| 2026-05-06 16:46 | 66.15329 | 68.57132 | 23853 ft | 473 kts | 126° |
| 2026-05-06 16:46 | 66.13692 | 68.64203 | 24226 ft | 475 kts | 126° |
| 2026-05-06 16:46 | 66.12048 | 68.71295 | 24587 ft | 477 kts | 126° |
| 2026-05-06 16:46 | 66.10391 | 68.78418 | 24938 ft | 480 kts | 126° |
| 2026-05-06 16:47 | 66.08723 | 68.85557 | 25267 ft | 481 kts | 126° |
| 2026-05-06 16:47 | 66.07047 | 68.92707 | 25660 ft | 483 kts | 126° |
| 2026-05-06 16:47 | 66.05361 | 68.99884 | 26033 ft | 485 kts | 126° |
| 2026-05-06 16:47 | 66.03668 | 69.07076 | 26390 ft | 487 kts | 126° |
| 2026-05-06 16:48 | 66.01967 | 69.14282 | 26743 ft | 489 kts | 126° |
| 2026-05-06 16:48 | 66.00272 | 69.21424 | 27093 ft | 491 kts | 126° |
| 2026-05-06 16:48 | 65.98544 | 69.28675 | 27440 ft | 493 kts | 126° |
| 2026-05-06 16:48 | 65.96804 | 69.35950 | 27770 ft | 495 kts | 126° |
| 2026-05-06 16:49 | 65.95053 | 69.43243 | 28099 ft | 497 kts | 127° |
| 2026-05-06 16:49 | 65.93293 | 69.50546 | 28505 ft | 497 kts | 127° |
| 2026-05-06 16:49 | 65.91537 | 69.57827 | 28993 ft | 496 kts | 127° |
| 2026-05-06 16:49 | 65.89783 | 69.65088 | 29471 ft | 495 kts | 127° |
| 2026-05-06 16:50 | 65.88031 | 69.72315 | 29897 ft | 494 kts | 127° |
| 2026-05-06 16:50 | 65.86281 | 69.79516 | 30308 ft | 491 kts | 126° |
| 2026-05-06 16:50 | 65.84563 | 69.86563 | 30784 ft | 488 kts | 126° |
| 2026-05-06 16:50 | 65.82824 | 69.93661 | 31234 ft | 486 kts | 126° |
| 2026-05-06 16:51 | 65.81087 | 70.00717 | 31657 ft | 485 kts | 126° |
| 2026-05-06 16:51 | 65.79345 | 70.07764 | 32083 ft | 485 kts | 126° |
| 2026-05-06 16:51 | 65.77602 | 70.14787 | 32493 ft | 484 kts | 126° |
| 2026-05-06 16:51 | 65.75861 | 70.21789 | 32905 ft | 483 kts | 126° |
| 2026-05-06 16:52 | 65.74120 | 70.28773 | 33353 ft | 482 kts | 126° |
| 2026-05-06 16:52 | 65.72377 | 70.35730 | 33735 ft | 482 kts | 126° |
| 2026-05-06 16:52 | 65.70652 | 70.42578 | 34059 ft | 481 kts | 126° |
| 2026-05-06 16:52 | 65.68908 | 70.49504 | 34369 ft | 481 kts | 126° |
| 2026-05-06 16:53 | 65.67346 | 70.56720 | 34662 ft | 486 kts | 116° |
| 2026-05-06 16:53 | 65.66247 | 70.64506 | 34903 ft | 491 kts | 106° |
| 2026-05-06 16:53 | 65.65565 | 70.72629 | 35232 ft | 491 kts | 103° |
| 2026-05-06 16:53 | 65.64918 | 70.80757 | 35537 ft | 491 kts | 103° |
| 2026-05-06 16:54 | 65.64259 | 70.88855 | 35822 ft | 490 kts | 103° |
| 2026-05-06 16:54 | 65.63587 | 70.96949 | 36099 ft | 490 kts | 103° |
| 2026-05-06 16:54 | 65.62906 | 71.05044 | 36362 ft | 491 kts | 103° |
| 2026-05-06 16:54 | 65.62231 | 71.13033 | 36529 ft | 492 kts | 103° |
| 2026-05-06 16:55 | 65.61539 | 71.21190 | 36550 ft | 496 kts | 103° |
| 2026-05-06 16:55 | 65.60142 | 71.37560 | 36557 ft | 498 kts | 103° |
| 2026-05-06 16:56 | 65.58726 | 71.53944 | 36559 ft | 498 kts | 104° |
| 2026-05-06 16:56 | 65.57290 | 71.70331 | 36560 ft | 498 kts | 104° |
| 2026-05-06 16:57 | 65.55858 | 71.86590 | 36562 ft | 498 kts | 104° |
| 2026-05-06 16:57 | 65.54398 | 72.02948 | 36579 ft | 499 kts | 104° |
| 2026-05-06 16:58 | 65.52926 | 72.19287 | 36576 ft | 499 kts | 104° |
| 2026-05-06 16:58 | 65.51428 | 72.35606 | 36556 ft | 498 kts | 104° |
| 2026-05-06 16:59 | 65.49859 | 72.51761 | 36578 ft | 497 kts | 110° |
| 2026-05-06 16:59 | 65.48562 | 72.59407 | 36581 ft | 492 kts | 121° |
| 2026-05-06 16:59 | 65.46752 | 72.66320 | 36582 ft | 485 kts | 132° |
| 2026-05-06 16:59 | 65.44507 | 72.72293 | 36578 ft | 478 kts | 143° |
| 2026-05-06 17:00 | 65.41918 | 72.77194 | 36576 ft | 471 kts | 153° |
| 2026-05-06 17:00 | 65.36186 | 72.84498 | 36582 ft | 466 kts | 159° |
| 2026-05-06 17:01 | 65.30395 | 72.91511 | 36583 ft | 467 kts | 159° |
| 2026-05-06 17:01 | 65.24640 | 72.98456 | 36564 ft | 467 kts | 159° |
| 2026-05-06 17:02 | 65.18830 | 73.05417 | 36586 ft | 467 kts | 159° |
| 2026-05-06 17:02 | 65.13012 | 73.12340 | 36609 ft | 467 kts | 159° |
| 2026-05-06 17:03 | 65.07194 | 73.19225 | 36611 ft | 468 kts | 159° |
| 2026-05-06 17:03 | 65.01370 | 73.26117 | 36626 ft | 468 kts | 159° |
| 2026-05-06 17:04 | 64.95589 | 73.32947 | 36606 ft | 468 kts | 159° |
| 2026-05-06 17:04 | 64.89765 | 73.39801 | 36633 ft | 468 kts | 159° |
| 2026-05-06 17:05 | 64.83933 | 73.46601 | 36634 ft | 468 kts | 159° |
| 2026-05-06 17:05 | 64.78098 | 73.53377 | 36649 ft | 468 kts | 159° |
| 2026-05-06 17:06 | 64.72296 | 73.60087 | 36648 ft | 468 kts | 159° |
| 2026-05-06 17:06 | 64.66461 | 73.66801 | 36625 ft | 467 kts | 159° |
| 2026-05-06 17:07 | 64.60627 | 73.73472 | 36635 ft | 467 kts | 159° |
| 2026-05-06 17:07 | 64.54793 | 73.80107 | 36645 ft | 467 kts | 159° |
| 2026-05-06 17:08 | 64.48999 | 73.86688 | 36649 ft | 467 kts | 159° |
| 2026-05-06 17:08 | 64.43166 | 73.93287 | 36657 ft | 467 kts | 159° |
| 2026-05-06 17:09 | 64.37326 | 73.99855 | 36663 ft | 466 kts | 159° |
| 2026-05-06 17:09 | 64.31489 | 74.06378 | 36664 ft | 466 kts | 159° |
| 2026-05-06 17:10 | 64.25646 | 74.12874 | 36661 ft | 466 kts | 159° |
| 2026-05-06 17:10 | 64.19842 | 74.19316 | 36662 ft | 466 kts | 159° |
| 2026-05-06 17:11 | 64.13992 | 74.25760 | 36655 ft | 466 kts | 159° |
| 2026-05-06 17:11 | 64.08137 | 74.32173 | 36653 ft | 466 kts | 159° |
| 2026-05-06 17:12 | 64.02282 | 74.38551 | 36654 ft | 466 kts | 160° |
| 2026-05-06 17:12 | 63.96467 | 74.44869 | 36663 ft | 466 kts | 160° |
| 2026-05-06 17:13 | 63.90617 | 74.51213 | 36666 ft | 466 kts | 160° |
| 2026-05-06 17:13 | 63.84758 | 74.57521 | 36637 ft | 466 kts | 160° |
| 2026-05-06 17:14 | 63.78901 | 74.63794 | 36656 ft | 466 kts | 160° |
| 2026-05-06 17:14 | 63.73073 | 74.70005 | 36681 ft | 466 kts | 160° |
| 2026-05-06 17:15 | 63.67199 | 74.76210 | 36689 ft | 466 kts | 160° |
| 2026-05-06 17:15 | 63.61330 | 74.82400 | 36690 ft | 466 kts | 160° |
| 2026-05-06 17:16 | 63.55464 | 74.88569 | 36667 ft | 466 kts | 160° |
| 2026-05-06 17:16 | 63.49630 | 74.94682 | 36681 ft | 466 kts | 160° |
| 2026-05-06 17:17 | 63.43754 | 75.00790 | 36693 ft | 466 kts | 160° |
| 2026-05-06 17:17 | 63.37871 | 75.06874 | 36701 ft | 466 kts | 160° |
| 2026-05-06 17:18 | 63.31983 | 75.12947 | 36707 ft | 466 kts | 160° |
| 2026-05-06 17:18 | 63.26139 | 75.18953 | 36670 ft | 466 kts | 160° |
| 2026-05-06 17:19 | 63.20268 | 75.25038 | 36695 ft | 468 kts | 155° |
| 2026-05-06 17:19 | 63.15053 | 75.33830 | 36705 ft | 477 kts | 140° |
| 2026-05-06 17:20 | 63.10260 | 75.43964 | 36715 ft | 477 kts | 140° |
| 2026-05-06 17:20 | 63.05444 | 75.54026 | 36720 ft | 477 kts | 140° |
| 2026-05-06 17:21 | 63.00645 | 75.63986 | 36695 ft | 478 kts | 140° |
| 2026-05-06 17:21 | 62.95800 | 75.73992 | 36719 ft | 477 kts | 140° |
| 2026-05-06 17:22 | 62.90946 | 75.83948 | 36732 ft | 477 kts | 140° |
| 2026-05-06 17:22 | 62.86089 | 75.93865 | 36743 ft | 477 kts | 140° |
| 2026-05-06 17:23 | 62.81267 | 76.03710 | 36748 ft | 477 kts | 140° |
| 2026-05-06 17:23 | 62.76413 | 76.13596 | 36746 ft | 477 kts | 140° |
| 2026-05-06 17:24 | 62.71554 | 76.23449 | 36726 ft | 476 kts | 140° |
| 2026-05-06 17:24 | 62.66687 | 76.33250 | 36745 ft | 476 kts | 140° |
| 2026-05-06 17:25 | 62.61814 | 76.43020 | 36752 ft | 476 kts | 140° |
| 2026-05-06 17:25 | 62.56975 | 76.52690 | 36759 ft | 476 kts | 141° |
| 2026-05-06 17:26 | 62.52086 | 76.62378 | 36760 ft | 476 kts | 141° |
| 2026-05-06 17:26 | 62.47197 | 76.72039 | 36754 ft | 476 kts | 140° |
| 2026-05-06 17:27 | 62.42301 | 76.81660 | 36774 ft | 476 kts | 141° |
| 2026-05-06 17:27 | 62.37436 | 76.91197 | 36778 ft | 476 kts | 141° |
| 2026-05-06 17:28 | 62.32533 | 77.00777 | 36791 ft | 476 kts | 141° |
| 2026-05-06 17:28 | 62.27626 | 77.10314 | 36794 ft | 476 kts | 141° |
| 2026-05-06 17:29 | 62.22703 | 77.19804 | 36770 ft | 476 kts | 141° |
| 2026-05-06 17:29 | 62.17604 | 77.28559 | 36787 ft | 470 kts | 153° |
| 2026-05-06 17:30 | 62.11620 | 77.33669 | 36786 ft | 460 kts | 172° |
| 2026-05-06 17:30 | 62.05317 | 77.35369 | 36799 ft | 456 kts | 178° |
| 2026-05-06 17:31 | 61.98999 | 77.36847 | 36800 ft | 457 kts | 178° |
| 2026-05-06 17:31 | 61.92728 | 77.38339 | 36787 ft | 457 kts | 177° |
| 2026-05-06 17:32 | 61.86412 | 77.39829 | 36792 ft | 457 kts | 178° |
| 2026-05-06 17:32 | 61.80090 | 77.41299 | 36806 ft | 457 kts | 178° |
| 2026-05-06 17:33 | 61.73770 | 77.42773 | 36810 ft | 457 kts | 178° |
| 2026-05-06 17:33 | 61.67491 | 77.44223 | 36820 ft | 457 kts | 178° |
| 2026-05-06 17:34 | 61.61174 | 77.45670 | 36819 ft | 457 kts | 178° |
| 2026-05-06 17:34 | 61.54849 | 77.47116 | 36828 ft | 457 kts | 178° |
| 2026-05-06 17:35 | 61.48523 | 77.48573 | 36831 ft | 458 kts | 178° |
| 2026-05-06 17:35 | 61.42188 | 77.50014 | 36833 ft | 458 kts | 178° |
| 2026-05-06 17:36 | 61.32730 | 77.52155 | 36819 ft | 458 kts | 178° |
| 2026-05-06 17:36 | 61.26387 | 77.53582 | 36832 ft | 459 kts | 177° |
| 2026-05-06 17:37 | 61.20042 | 77.55017 | 36845 ft | 458 kts | 177° |
| 2026-05-06 17:37 | 61.13741 | 77.56422 | 36842 ft | 458 kts | 178° |
| 2026-05-06 17:38 | 61.07397 | 77.57822 | 36856 ft | 459 kts | 178° |
| 2026-05-06 17:38 | 61.01047 | 77.59240 | 36839 ft | 459 kts | 177° |
| 2026-05-06 17:39 | 60.94695 | 77.60651 | 36854 ft | 459 kts | 177° |
| 2026-05-06 17:39 | 60.88384 | 77.62041 | 36869 ft | 459 kts | 177° |
| 2026-05-06 17:40 | 60.82028 | 77.63453 | 36868 ft | 459 kts | 177° |
| 2026-05-06 17:40 | 60.75676 | 77.64869 | 36846 ft | 459 kts | 176° |
| 2026-05-06 17:41 | 60.69508 | 77.68455 | 36854 ft | 467 kts | 156° |
| 2026-05-06 17:41 | 60.64006 | 77.75437 | 36862 ft | 470 kts | 149° |
| 2026-05-06 17:42 | 60.58555 | 77.82808 | 36863 ft | 470 kts | 149° |
| 2026-05-06 17:42 | 60.53092 | 77.90120 | 36868 ft | 470 kts | 149° |
| 2026-05-06 17:43 | 60.47655 | 77.97376 | 36851 ft | 471 kts | 149° |
| 2026-05-06 17:43 | 60.42186 | 78.04668 | 36865 ft | 471 kts | 149° |
| 2026-05-06 17:44 | 60.36708 | 78.11938 | 36874 ft | 471 kts | 149° |
| 2026-05-06 17:44 | 60.31220 | 78.19192 | 36883 ft | 471 kts | 149° |
| 2026-05-06 17:45 | 60.25727 | 78.26416 | 36885 ft | 472 kts | 149° |
| 2026-05-06 17:45 | 60.20261 | 78.33567 | 36869 ft | 472 kts | 149° |
| 2026-05-06 17:46 | 60.14754 | 78.40742 | 36882 ft | 472 kts | 149° |
| 2026-05-06 17:46 | 60.09236 | 78.47899 | 36894 ft | 472 kts | 149° |
| 2026-05-06 17:47 | 60.03711 | 78.55040 | 36896 ft | 472 kts | 149° |
| 2026-05-06 17:47 | 59.98220 | 78.62105 | 36903 ft | 472 kts | 149° |
| 2026-05-06 17:48 | 59.92694 | 78.69209 | 36890 ft | 473 kts | 149° |
| 2026-05-06 17:48 | 59.87159 | 78.76290 | 36911 ft | 473 kts | 149° |
| 2026-05-06 17:49 | 59.81616 | 78.83347 | 36911 ft | 473 kts | 149° |
| 2026-05-06 17:49 | 59.76062 | 78.90375 | 36914 ft | 473 kts | 149° |
| 2026-05-06 17:50 | 59.70553 | 78.97317 | 36899 ft | 473 kts | 149° |
| 2026-05-06 17:50 | 59.65002 | 79.04317 | 36899 ft | 473 kts | 149° |
| 2026-05-06 17:51 | 59.59438 | 79.11284 | 36902 ft | 474 kts | 150° |
| 2026-05-06 17:51 | 59.53858 | 79.18225 | 36913 ft | 474 kts | 150° |
| 2026-05-06 17:52 | 59.48315 | 79.25112 | 36920 ft | 475 kts | 150° |
| 2026-05-06 17:52 | 59.42735 | 79.32049 | 36906 ft | 475 kts | 150° |
| 2026-05-06 17:53 | 59.37153 | 79.38928 | 36911 ft | 475 kts | 150° |
| 2026-05-06 17:53 | 59.31554 | 79.45797 | 36917 ft | 475 kts | 150° |
| 2026-05-06 17:54 | 59.25985 | 79.52598 | 36925 ft | 475 kts | 150° |
| 2026-05-06 17:54 | 59.20373 | 79.59430 | 36927 ft | 475 kts | 150° |
| 2026-05-06 17:55 | 59.14756 | 79.66247 | 36914 ft | 476 kts | 150° |
| 2026-05-06 17:55 | 59.09130 | 79.73052 | 36927 ft | 476 kts | 150° |
| 2026-05-06 17:56 | 59.03540 | 79.79792 | 36943 ft | 476 kts | 150° |
| 2026-05-06 17:56 | 58.97907 | 79.86549 | 36943 ft | 476 kts | 150° |
| 2026-05-06 17:57 | 58.92277 | 79.93277 | 36941 ft | 476 kts | 150° |
| 2026-05-06 17:57 | 58.86640 | 79.99985 | 36942 ft | 476 kts | 150° |
| 2026-05-06 17:58 | 58.80991 | 80.06653 | 36941 ft | 475 kts | 152° |
| 2026-05-06 17:58 | 58.75063 | 80.11964 | 36943 ft | 473 kts | 159° |
| 2026-05-06 17:59 | 58.69042 | 80.17069 | 37029 ft | 471 kts | 158° |
| 2026-05-06 17:59 | 58.66088 | 80.19577 | 36911 ft | 470 kts | 159° |
| 2026-05-06 17:59 | 58.63090 | 80.22120 | 36950 ft | 472 kts | 159° |
| 2026-05-06 18:00 | 58.57072 | 80.27212 | 36948 ft | 473 kts | 159° |
| 2026-05-06 18:00 | 58.51087 | 80.32242 | 36950 ft | 473 kts | 159° |
| 2026-05-06 18:01 | 58.45059 | 80.37273 | 36950 ft | 473 kts | 159° |
| 2026-05-06 18:01 | 58.39021 | 80.42294 | 36932 ft | 473 kts | 159° |
| 2026-05-06 18:02 | 58.32980 | 80.47298 | 36949 ft | 474 kts | 159° |
| 2026-05-06 18:02 | 58.26968 | 80.52260 | 36959 ft | 474 kts | 159° |
| 2026-05-06 18:03 | 58.20910 | 80.57254 | 36969 ft | 475 kts | 159° |
| 2026-05-06 18:03 | 58.14844 | 80.62228 | 36975 ft | 475 kts | 159° |
| 2026-05-06 18:04 | 58.08779 | 80.67199 | 36965 ft | 475 kts | 159° |
| 2026-05-06 18:04 | 58.02703 | 80.72154 | 36968 ft | 476 kts | 159° |
| 2026-05-06 18:05 | 57.96669 | 80.77060 | 36981 ft | 476 kts | 159° |
| 2026-05-06 18:05 | 57.90584 | 80.81968 | 36977 ft | 476 kts | 159° |
| 2026-05-06 18:06 | 57.84499 | 80.86864 | 36986 ft | 476 kts | 159° |
| 2026-05-06 18:06 | 57.78414 | 80.91743 | 36991 ft | 475 kts | 159° |
| 2026-05-06 18:07 | 57.72374 | 80.96574 | 36993 ft | 475 kts | 159° |
| 2026-05-06 18:07 | 57.66294 | 81.01432 | 36986 ft | 475 kts | 159° |
| 2026-05-06 18:08 | 57.60215 | 81.06260 | 36974 ft | 475 kts | 159° |
| 2026-05-06 18:08 | 57.54131 | 81.11075 | 36981 ft | 475 kts | 159° |
| 2026-05-06 18:09 | 57.48083 | 81.15825 | 36991 ft | 475 kts | 159° |
| 2026-05-06 18:09 | 57.41995 | 81.20604 | 36986 ft | 475 kts | 159° |
| 2026-05-06 18:10 | 57.35902 | 81.25372 | 36989 ft | 475 kts | 159° |
| 2026-05-06 18:10 | 57.29806 | 81.30123 | 36980 ft | 475 kts | 159° |
| 2026-05-06 18:11 | 57.23748 | 81.34834 | 36988 ft | 476 kts | 159° |
| 2026-05-06 18:11 | 57.17654 | 81.39572 | 36991 ft | 476 kts | 159° |
| 2026-05-06 18:12 | 57.11549 | 81.44286 | 36986 ft | 475 kts | 159° |
| 2026-05-06 18:12 | 57.05448 | 81.48976 | 36970 ft | 476 kts | 159° |
| 2026-05-06 18:13 | 56.99341 | 81.53660 | 36978 ft | 476 kts | 160° |
| 2026-05-06 18:13 | 56.93264 | 81.58295 | 36983 ft | 476 kts | 160° |
| 2026-05-06 18:14 | 56.87143 | 81.62961 | 36991 ft | 477 kts | 160° |
| 2026-05-06 18:14 | 56.81018 | 81.67621 | 36981 ft | 477 kts | 160° |
| 2026-05-06 18:15 | 56.74889 | 81.72262 | 36989 ft | 478 kts | 160° |
| 2026-05-06 18:15 | 56.68786 | 81.76857 | 36996 ft | 478 kts | 160° |
| 2026-05-06 18:16 | 56.62638 | 81.81477 | 37001 ft | 478 kts | 160° |
| 2026-05-06 18:16 | 56.56485 | 81.86079 | 36980 ft | 478 kts | 160° |
| 2026-05-06 18:17 | 56.50331 | 81.90670 | 36995 ft | 478 kts | 160° |
| 2026-05-06 18:17 | 56.44219 | 81.95228 | 36998 ft | 478 kts | 160° |
| 2026-05-06 18:18 | 56.38068 | 81.99786 | 36993 ft | 478 kts | 160° |
| 2026-05-06 18:18 | 56.31914 | 82.04316 | 36992 ft | 478 kts | 160° |
| 2026-05-06 18:19 | 56.25759 | 82.08830 | 36989 ft | 477 kts | 160° |
| 2026-05-06 18:19 | 56.19649 | 82.13298 | 36988 ft | 477 kts | 160° |
| 2026-05-06 18:20 | 56.13497 | 82.17792 | 36990 ft | 477 kts | 160° |
| 2026-05-06 18:20 | 56.07347 | 82.22279 | 36988 ft | 477 kts | 160° |
| 2026-05-06 18:21 | 56.01149 | 82.26462 | 36971 ft | 474 kts | 168° |
| 2026-05-06 18:21 | 55.94713 | 82.28966 | 36977 ft | 473 kts | 172° |
| 2026-05-06 18:22 | 55.88255 | 82.30267 | 36978 ft | 470 kts | 178° |
| 2026-05-06 18:22 | 55.81742 | 82.31386 | 36975 ft | 470 kts | 177° |
| 2026-05-06 18:23 | 55.75229 | 82.32521 | 36965 ft | 470 kts | 177° |
| 2026-05-06 18:23 | 55.68717 | 82.33637 | 36976 ft | 470 kts | 178° |
| 2026-05-06 18:24 | 55.62255 | 82.34745 | 36976 ft | 470 kts | 177° |
| 2026-05-06 18:24 | 55.55752 | 82.35860 | 36979 ft | 470 kts | 178° |
| 2026-05-06 18:25 | 55.49250 | 82.36976 | 36961 ft | 469 kts | 178° |
| 2026-05-06 18:25 | 55.42752 | 82.38086 | 36970 ft | 469 kts | 178° |
| 2026-05-06 18:26 | 55.36300 | 82.39178 | 36972 ft | 469 kts | 178° |
| 2026-05-06 18:26 | 55.29833 | 82.40723 | 36969 ft | 472 kts | 167° |
| 2026-05-06 18:27 | 55.23818 | 82.45407 | 36954 ft | 478 kts | 149° |
| 2026-05-06 18:27 | 55.18247 | 82.51777 | 36946 ft | 478 kts | 149° |
| 2026-05-06 18:28 | 55.12698 | 82.58062 | 36946 ft | 478 kts | 149° |
| 2026-05-06 18:28 | 55.07103 | 82.64348 | 36948 ft | 478 kts | 149° |
| 2026-05-06 18:29 | 55.01517 | 82.70656 | 36937 ft | 478 kts | 149° |
| 2026-05-06 18:29 | 54.95935 | 82.76954 | 36949 ft | 478 kts | 149° |
| 2026-05-06 18:30 | 54.90346 | 82.83222 | 36954 ft | 478 kts | 149° |
| 2026-05-06 18:30 | 54.84795 | 82.89426 | 36958 ft | 478 kts | 149° |
| 2026-05-06 18:31 | 54.79213 | 82.95665 | 36960 ft | 477 kts | 150° |
| 2026-05-06 18:31 | 54.73622 | 83.01880 | 36969 ft | 477 kts | 150° |
| 2026-05-06 18:32 | 54.68034 | 83.08085 | 36966 ft | 477 kts | 150° |
| 2026-05-06 18:32 | 54.62478 | 83.14230 | 36971 ft | 477 kts | 150° |
| 2026-05-06 18:33 | 54.56887 | 83.20393 | 36968 ft | 477 kts | 150° |
| 2026-05-06 18:33 | 54.51292 | 83.26546 | 36951 ft | 477 kts | 150° |
| 2026-05-06 18:34 | 54.45692 | 83.32683 | 36960 ft | 477 kts | 150° |
| 2026-05-06 18:34 | 54.40122 | 83.38765 | 36965 ft | 477 kts | 150° |
| 2026-05-06 18:35 | 54.34503 | 83.44852 | 36969 ft | 478 kts | 150° |
| 2026-05-06 18:35 | 54.28886 | 83.50929 | 36960 ft | 478 kts | 150° |
| 2026-05-06 18:36 | 54.23271 | 83.57002 | 36970 ft | 478 kts | 150° |
| 2026-05-06 18:36 | 54.17655 | 83.63067 | 36974 ft | 478 kts | 150° |
| 2026-05-06 18:37 | 54.12978 | 83.68092 | 36977 ft | 478 kts | 151° |
| 2026-05-06 18:37 | 54.06434 | 83.75083 | 36964 ft | 478 kts | 151° |
| 2026-05-06 18:38 | 54.00802 | 83.81075 | 36970 ft | 477 kts | 151° |
| 2026-05-06 18:38 | 53.95182 | 83.87086 | 36972 ft | 477 kts | 151° |
| 2026-05-06 18:39 | 53.89585 | 83.93026 | 36972 ft | 477 kts | 151° |
| 2026-05-06 18:40 | 53.81123 | 84.01929 | 36977 ft | 477 kts | 151° |
| 2026-05-06 18:40 | 53.75480 | 84.07866 | 36980 ft | 477 kts | 151° |
| 2026-05-06 18:41 | 53.69838 | 84.13783 | 36984 ft | 477 kts | 151° |
| 2026-05-06 18:41 | 53.64231 | 84.19641 | 36982 ft | 477 kts | 151° |
| 2026-05-06 18:42 | 53.58580 | 84.25524 | 36955 ft | 477 kts | 152° |
| 2026-05-06 18:42 | 53.52920 | 84.31391 | 36965 ft | 478 kts | 152° |
| 2026-05-06 18:43 | 53.47267 | 84.37250 | 36912 ft | 478 kts | 152° |
| 2026-05-06 18:43 | 53.44437 | 84.40180 | 36647 ft | 477 kts | 152° |
| 2026-05-06 18:43 | 53.41610 | 84.43099 | 36397 ft | 477 kts | 152° |
| 2026-05-06 18:43 | 53.38819 | 84.45968 | 36144 ft | 477 kts | 152° |
| 2026-05-06 18:44 | 53.35985 | 84.48874 | 35869 ft | 478 kts | 153° |
| 2026-05-06 18:44 | 53.33150 | 84.51780 | 35622 ft | 478 kts | 153° |
| 2026-05-06 18:44 | 53.30308 | 84.54689 | 35371 ft | 479 kts | 153° |
| 2026-05-06 18:44 | 53.27462 | 84.57598 | 34590 ft | 483 kts | 153° |
| 2026-05-06 18:45 | 53.24585 | 84.60527 | 33693 ft | 486 kts | 154° |
| 2026-05-06 18:45 | 53.21683 | 84.63474 | 32670 ft | 490 kts | 154° |
| 2026-05-06 18:45 | 53.18764 | 84.66442 | 31674 ft | 492 kts | 154° |
| 2026-05-06 18:45 | 53.16822 | 84.68413 | 31035 ft | 493 kts | 154° |
| 2026-05-06 18:46 | 53.12931 | 84.72358 | 29423 ft | 498 kts | 155° |
| 2026-05-06 18:46 | 53.09964 | 84.75363 | 28375 ft | 497 kts | 155° |
| 2026-05-06 18:46 | 53.07050 | 84.78321 | 27789 ft | 487 kts | 155° |
| 2026-05-06 18:46 | 53.04170 | 84.81245 | 27030 ft | 482 kts | 155° |
| 2026-05-06 18:47 | 53.01326 | 84.84129 | 26318 ft | 476 kts | 155° |
| 2026-05-06 18:47 | 52.98509 | 84.86975 | 25594 ft | 472 kts | 155° |
| 2026-05-06 18:47 | 52.95716 | 84.89785 | 24884 ft | 468 kts | 154° |
| 2026-05-06 18:47 | 52.92941 | 84.92559 | 24178 ft | 464 kts | 155° |
| 2026-05-06 18:48 | 52.90221 | 84.95264 | 23447 ft | 460 kts | 155° |
| 2026-05-06 18:48 | 52.87490 | 84.97982 | 22712 ft | 455 kts | 155° |
| 2026-05-06 18:48 | 52.84803 | 85.00668 | 22050 ft | 448 kts | 155° |
| 2026-05-06 18:48 | 52.82152 | 85.03315 | 21392 ft | 443 kts | 155° |
| 2026-05-06 18:49 | 52.79526 | 85.05933 | 20752 ft | 438 kts | 155° |
| 2026-05-06 18:49 | 52.76931 | 85.08516 | 20141 ft | 434 kts | 155° |
| 2026-05-06 18:49 | 52.74353 | 85.11076 | 19562 ft | 430 kts | 155° |
| 2026-05-06 18:49 | 52.71797 | 85.13609 | 18975 ft | 427 kts | 155° |
| 2026-05-06 18:50 | 52.69255 | 85.16130 | 18384 ft | 425 kts | 155° |
| 2026-05-06 18:50 | 52.66728 | 85.18635 | 17739 ft | 423 kts | 155° |
| 2026-05-06 18:50 | 52.64249 | 85.21084 | 17190 ft | 418 kts | 156° |
| 2026-05-06 18:50 | 52.61762 | 85.23535 | 16593 ft | 415 kts | 156° |
| 2026-05-06 18:51 | 52.59294 | 85.25961 | 15983 ft | 412 kts | 156° |
| 2026-05-06 18:51 | 52.56847 | 85.28362 | 15361 ft | 409 kts | 156° |
| 2026-05-06 18:51 | 52.54411 | 85.30752 | 14742 ft | 406 kts | 156° |
| 2026-05-06 18:51 | 52.51992 | 85.33119 | 14095 ft | 403 kts | 156° |
| 2026-05-06 18:52 | 52.49590 | 85.35465 | 13414 ft | 401 kts | 157° |
| 2026-05-06 18:52 | 52.47231 | 85.37869 | 12761 ft | 400 kts | 152° |
| 2026-05-06 18:52 | 52.45118 | 85.40884 | 12109 ft | 404 kts | 142° |
| 2026-05-06 18:52 | 52.43180 | 85.44103 | 11431 ft | 400 kts | 141° |
| 2026-05-06 18:53 | 52.41252 | 85.47320 | 10806 ft | 389 kts | 141° |
| 2026-05-06 18:53 | 52.39433 | 85.50372 | 10518 ft | 360 kts | 142° |
| 2026-05-06 18:53 | 52.38286 | 85.52298 | 10433 ft | 340 kts | 142° |
| 2026-05-06 18:53 | 52.36213 | 85.55761 | 10068 ft | 314 kts | 143° |
| 2026-05-06 18:54 | 52.34706 | 85.58245 | 9880 ft | 301 kts | 143° |
| 2026-05-06 18:54 | 52.33273 | 85.60597 | 9752 ft | 285 kts | 144° |
| 2026-05-06 18:54 | 52.31874 | 85.62874 | 9607 ft | 282 kts | 144° |
| 2026-05-06 18:54 | 52.30484 | 85.65129 | 9490 ft | 282 kts | 144° |
| 2026-05-06 18:55 | 52.29105 | 85.67365 | 9072 ft | 284 kts | 143° |
| 2026-05-06 18:55 | 52.27701 | 85.69645 | 8430 ft | 285 kts | 143° |
| 2026-05-06 18:55 | 52.26298 | 85.71930 | 7795 ft | 285 kts | 142° |
| 2026-05-06 18:55 | 52.24894 | 85.74214 | 7176 ft | 285 kts | 142° |
| 2026-05-06 18:56 | 52.23492 | 85.76497 | 6593 ft | 283 kts | 141° |
| 2026-05-06 18:56 | 52.22096 | 85.78779 | 5911 ft | 285 kts | 141° |
| 2026-05-06 18:56 | 52.20708 | 85.81054 | 5471 ft | 275 kts | 140° |
| 2026-05-06 18:56 | 52.19535 | 85.83357 | 5399 ft | 256 kts | 127° |
| 2026-05-06 18:57 | 52.18737 | 85.85829 | 5348 ft | 237 kts | 119° |
| 2026-05-06 18:57 | 52.18074 | 85.88144 | 5225 ft | 221 kts | 120° |
| 2026-05-06 18:57 | 52.17447 | 85.90307 | 5120 ft | 203 kts | 120° |
| 2026-05-06 18:57 | 52.16837 | 85.92358 | 4792 ft | 199 kts | 125° |
| 2026-05-06 18:58 | 52.15973 | 85.94053 | 4724 ft | 193 kts | 146° |
| 2026-05-06 18:58 | 52.14845 | 85.95161 | 4702 ft | 187 kts | 166° |
| 2026-05-06 18:58 | 52.13615 | 85.95617 | 4577 ft | 174 kts | 184° |
| 2026-05-06 18:58 | 52.12455 | 85.95458 | 4393 ft | 162 kts | 201° |
| 2026-05-06 18:59 | 52.11430 | 85.94806 | 4186 ft | 156 kts | 212° |
| 2026-05-06 18:59 | 52.10473 | 85.94069 | 3968 ft | 152 kts | 212° |
| 2026-05-06 18:59 | 52.09528 | 85.93342 | 3752 ft | 149 kts | 213° |
| 2026-05-06 18:59 | 52.08614 | 85.92639 | 3547 ft | 143 kts | 213° |
| 2026-05-06 19:00 | 52.07735 | 85.91962 | 3361 ft | 139 kts | 214° |
| 2026-05-06 19:00 | 52.06862 | 85.91288 | 3147 ft | 139 kts | 214° |
| 2026-05-06 19:00 | 52.05989 | 85.90616 | 2940 ft | 139 kts | 214° |
| 2026-05-06 19:00 | 52.05409 | 85.90169 | 2798 ft | 140 kts | 214° |
| 2026-05-06 19:01 | 52.04233 | 85.89264 | 2522 ft | 140 kts | 214° |
| 2026-05-06 19:01 | 52.03363 | 85.88595 | 2324 ft | 140 kts | 214° |
| 2026-05-06 19:01 | 52.02482 | 85.87921 | 2106 ft | 140 kts | 214° |
| 2026-05-06 19:01 | 52.01601 | 85.87252 | 1929 ft | 139 kts | 211° |
| 2026-05-06 19:02 | 52.00728 | 85.86584 | 1708 ft | 139 kts | 212° |
| 2026-05-06 19:02 | 51.99855 | 85.85901 | 1479 ft | 140 kts | 209° |
| 2026-05-06 19:02 | 51.98975 | 85.85227 | 1286 ft | 141 kts | 207° |
| 2026-05-06 19:02 | 51.98089 | 85.84551 | 1060 ft | 140 kts | 208° |
| 2026-05-06 19:03 | 51.97255 | 85.83906 | 969 ft | 115 kts | 205° |
| 2026-05-06 19:03 | 51.96803 | 85.83562 | 981 ft | 31 kts | 205° |
| 2026-05-06 19:03 | 51.96670 | 85.83447 | 975 ft | 10 kts | 225° |
| 2026-05-06 19:03 | 51.96646 | 85.83454 | 975 ft | 4 kts | 82° |
| 2026-05-06 19:04 | 51.96700 | 85.83491 | 975 ft | 12 kts | 19° |
| 2026-05-06 19:04 | 51.96777 | 85.83549 | 973 ft | 11 kts | 41° |
| 2026-05-06 19:04 | 51.96791 | 85.83689 | 975 ft | 15 kts | 85° |
| 2026-05-06 19:04 | 51.96795 | 85.83771 | 973 ft | 4 kts | 86° |
| 2026-05-06 19:05 | 51.96799 | 85.83829 | 974 ft | 6 kts | 76° |
| 2026-05-06 19:05 | 51.96832 | 85.83883 | 975 ft | 6 kts | 56° |
| 2026-05-06 19:05 | 51.96817 | 85.83966 | 973 ft | 8 kts | 115° |
| 2026-05-06 19:05 | 51.96823 | 85.84024 | 973 ft | 6 kts | 36° |
| 2026-05-06 19:06 | 51.96853 | 85.84000 | 977 ft | 4 kts | 297° |
| 2026-05-06 19:06 | 51.96860 | 85.83974 | 975 ft | 2 kts | 296° |
| 2026-05-06 19:06 | 51.96861 | 85.83971 | 975 ft | 0 kts | 296° |
| 2026-05-06 19:17 | 52.05846 | 85.90505 | 2907 ft | 137 kts | 214° |
| 2026-05-06 19:17 | 52.05743 | 85.90426 | 2883 ft | 139 kts | 214° |
| 2026-05-06 19:17 | 52.04860 | 85.89746 | 2677 ft | 139 kts | 214° |
| 2026-05-06 19:18 | 51.98964 | 85.85219 | 1288 ft | 137 kts | 207° |
| 2026-05-06 19:18 | 51.97120 | 85.83805 | 969 ft | 98 kts | 205° |
| 2026-05-06 19:18 | 51.96745 | 85.83521 | 966 ft | 13 kts | 22° |
| 2026-05-06 19:18 | 51.98747 | 85.85052 | 1230 ft | 137 kts | 207° |
| 2026-05-06 19:19 | 52.00663 | 85.86533 | 1714 ft | 140 kts | 212° |
| 2026-05-06 19:19 | 51.97879 | 85.84388 | 1012 ft | 139 kts | 208° |
| 2026-05-06 19:19 | 51.97957 | 85.84448 | 1028 ft | 139 kts | 208° |
| 2026-05-06 19:19 | 51.97778 | 85.84310 | 999 ft | 136 kts | 207° |